East Brookfield, Massachusetts
Current Conditions -  °F | °C
As of 1:54 PM on Thursday 30 Oct 2014 (Local Time) from KORH Reporting Station
Overcast Overcast  
Wind Chill: 50°   Ceiling: 4700
Heat Index: 50°   Visibility: 10mi
Dew Point: 35°   Wind: 10mph
Humidity: 57%   Direction: 280°W
Pressure: 29.92"   Gusts: NA
Location:  42.23°N, 72.05°W
Report Text: KORH 301754Z 28009KT 10SM BKN047 OVC055 10/02 A2992 RMK AO2 SLP138 T01000017 10111 20056 56008
Loading
Personal Weather Stations






























Interactive Weather Map
Tropical Storm Tracking
New forecast layout! Learn more

10-Day Weather Forecast

Advertisements
Track Severe Weather on mobile